createdAt,value
2018-08-23T00:00:39.265Z,49.67
2018-08-23T00:04:07.127Z,49.48
2018-08-23T00:07:31.571Z,51.45
2018-08-23T00:10:55.980Z,50.00
2018-08-23T00:14:20.449Z,52.48
2018-08-23T00:17:47.649Z,50.12
2018-08-23T00:21:17.163Z,54.95
2018-08-23T00:24:41.641Z,49.48
2018-08-23T00:28:06.598Z,49.45
2018-08-23T00:31:34.171Z,57.78
2018-08-23T00:34:58.825Z,47.58
2018-08-23T00:38:23.238Z,57.58
2018-08-23T00:41:52.792Z,51.88
2018-08-23T00:45:19.032Z,61.18
2018-08-23T00:48:43.965Z,58.00
2018-08-23T00:52:08.430Z,55.15
2018-08-23T00:55:32.867Z,51.88
2018-08-23T00:59:00.665Z,55.78
2018-08-23T01:02:25.050Z,55.55
2018-08-23T01:05:49.462Z,64.17
2018-08-23T01:09:14.546Z,61.90
2018-08-23T01:12:49.445Z,58.35
2018-08-23T01:16:14.906Z,56.48
2018-08-23T01:19:44.580Z,61.88
2018-08-23T01:23:09.132Z,57.00
2018-08-23T01:26:35.638Z,64.53
2018-08-23T01:30:00.111Z,58.60
2018-08-23T01:33:24.548Z,60.35
2018-08-23T01:36:48.994Z,63.02
2018-08-23T01:40:13.429Z,59.85
2018-08-23T01:43:37.883Z,60.30
2018-08-23T01:47:03.466Z,64.05
2018-08-23T01:50:28.175Z,66.65
2018-08-23T01:53:52.642Z,70.57
2018-08-23T01:57:22.404Z,62.33
2018-08-23T02:00:49.055Z,69.65
2018-08-23T02:04:13.566Z,63.50
2018-08-23T02:07:37.970Z,63.25
2018-08-23T02:11:02.478Z,71.17
2018-08-23T02:14:28.370Z,57.60
2018-08-23T02:17:58.881Z,60.35
2018-08-23T02:21:23.352Z,67.50
2018-08-23T02:24:49.501Z,58.10
2018-08-23T02:28:13.916Z,59.60
2018-08-23T02:31:38.494Z,63.78
2018-08-23T02:35:06.006Z,63.30
2018-08-23T02:38:30.693Z,61.23
2018-08-23T02:41:55.132Z,65.62
2018-08-23T02:45:19.578Z,61.90
2018-08-23T02:48:44.054Z,61.40
2018-08-23T02:52:08.503Z,65.32
2018-08-23T02:55:39.328Z,62.60
2018-08-23T02:59:06.653Z,74.47
2018-08-23T03:02:31.125Z,66.47
2018-08-23T03:05:55.603Z,65.57
2018-08-23T03:09:23.892Z,65.03
2018-08-23T03:12:48.394Z,64.32
2018-08-23T03:16:13.302Z,60.50
2018-08-23T03:19:37.775Z,60.08
2018-08-23T03:23:02.205Z,66.07
2018-08-23T03:26:26.609Z,69.20
2018-08-23T03:29:51.278Z,61.40
2018-08-23T03:33:15.719Z,62.55
2018-08-23T03:36:40.153Z,66.12
2018-08-23T03:40:04.875Z,70.10
2018-08-23T03:43:29.324Z,72.42
2018-08-23T03:46:55.120Z,73.42
2018-08-23T03:50:19.540Z,77.78
2018-08-23T03:53:49.450Z,72.25
2018-08-23T03:57:16.606Z,75.05
2018-08-23T04:01:00.419Z,66.72
2018-08-23T04:04:24.812Z,73.07
2018-08-23T04:07:49.239Z,66.30
2018-08-23T04:11:13.721Z,72.03
2018-08-23T04:14:38.505Z,71.42
2018-08-23T04:18:18.300Z,72.45
2018-08-23T04:21:42.719Z,68.50
2018-08-23T04:25:14.049Z,74.55
2018-08-23T04:28:38.605Z,76.82
2018-08-23T04:32:04.451Z,71.10
2018-08-23T04:35:29.849Z,76.42
2018-08-23T04:38:58.366Z,76.15
2018-08-23T04:42:22.809Z,72.58
2018-08-23T04:45:47.293Z,71.87
2018-08-23T04:49:11.810Z,70.72
2018-08-23T04:52:36.228Z,69.55
2018-08-23T04:56:00.635Z,73.47
2018-08-23T04:59:25.096Z,79.97
2018-08-23T05:02:49.731Z,71.20
2018-08-23T05:06:14.241Z,76.22
2018-08-23T05:09:38.668Z,68.22
2018-08-23T05:13:03.126Z,79.53
2018-08-23T05:16:27.600Z,81.95
2018-08-23T05:19:52.110Z,82.62
2018-08-23T05:23:16.595Z,75.70
2018-08-23T05:26:41.407Z,80.65
2018-08-23T05:30:06.062Z,72.72
2018-08-23T05:33:30.492Z,78.55
2018-08-23T05:36:54.912Z,81.20
2018-08-23T05:40:19.337Z,80.05
2018-08-23T05:43:43.844Z,78.07
2018-08-23T05:47:08.308Z,73.42
2018-08-23T05:50:36.021Z,84.13
2018-08-23T05:54:00.448Z,80.65
2018-08-23T05:57:24.852Z,81.80
2018-08-23T06:00:49.264Z,83.55
2018-08-23T06:04:14.404Z,91.92
2018-08-23T06:07:38.873Z,81.70
2018-08-23T06:11:09.079Z,84.77
2018-08-23T06:14:33.480Z,83.20
2018-08-23T06:17:57.915Z,86.85
2018-08-23T06:21:22.414Z,82.78
2018-08-23T06:24:46.821Z,74.07
2018-08-23T06:28:24.203Z,73.83
2018-08-23T06:32:00.487Z,74.45
2018-08-23T06:35:26.485Z,83.30
2018-08-23T06:38:56.205Z,83.70
2018-08-23T06:42:21.043Z,94.47
2018-08-23T06:45:45.469Z,88.50
2018-08-23T06:49:09.897Z,80.32
2018-08-23T06:52:39.487Z,81.22
2018-08-23T06:56:03.917Z,76.75
2018-08-23T06:59:28.436Z,79.17
2018-08-23T07:02:52.872Z,80.92
2018-08-23T07:06:17.339Z,71.30
2018-08-23T07:09:41.762Z,67.65
2018-08-23T07:13:07.268Z,74.70
2018-08-23T07:16:32.507Z,73.80
2018-08-23T07:20:00.321Z,71.20
2018-08-23T07:23:34.609Z,64.15
2018-08-23T07:26:59.013Z,69.25
2018-08-23T07:30:23.452Z,70.97
2018-08-23T07:33:52.643Z,68.70
2018-08-23T07:37:18.394Z,81.37
2018-08-23T07:40:42.802Z,67.08
2018-08-23T07:44:07.279Z,69.97
2018-08-23T07:47:32.528Z,77.45
2018-08-23T07:50:57.011Z,80.30
2018-08-23T07:54:23.220Z,73.20
2018-08-23T07:57:47.812Z,71.75
2018-08-23T08:01:14.224Z,67.08
2018-08-23T08:04:38.639Z,68.20
2018-08-23T08:08:03.253Z,70.37
2018-08-23T08:11:30.096Z,66.37
2018-08-23T08:14:54.612Z,64.25
2018-08-23T08:18:22.786Z,55.15
2018-08-23T08:21:47.282Z,71.35
2018-08-23T08:25:19.129Z,61.18
2018-08-23T08:28:43.531Z,60.85
2018-08-23T08:32:10.050Z,53.58
2018-08-23T08:35:34.500Z,60.98
2018-08-23T08:38:59.371Z,44.90
2018-08-23T08:42:34.002Z,45.88
2018-08-23T08:45:59.509Z,47.75
2018-08-23T08:49:23.995Z,44.20
2018-08-23T08:52:48.396Z,45.98
2018-08-23T08:56:12.884Z,49.10
2018-08-23T08:59:37.329Z,41.45
2018-08-23T09:03:01.753Z,36.30
2018-08-23T09:06:46.669Z,35.73
2018-08-23T09:10:10.778Z,32.67
2018-08-23T09:13:40.339Z,29.82
2018-08-23T09:17:26.888Z,31.77
2018-08-23T09:20:54.895Z,29.20
2018-08-23T09:24:28.745Z,34.10
2018-08-23T09:27:53.165Z,28.02
2018-08-23T09:31:17.679Z,27.77
2018-08-23T09:34:42.645Z,27.27
2018-08-23T09:38:14.895Z,22.55
2018-08-23T09:41:39.451Z,20.27
2018-08-23T09:45:17.067Z,20.20
2018-08-23T09:48:41.485Z,21.20
2018-08-23T09:52:11.571Z,23.67
2018-08-23T09:55:35.968Z,21.93
2018-08-23T09:59:00.513Z,22.07
2018-08-23T10:02:30.144Z,18.73
2018-08-23T10:05:59.745Z,14.47
2018-08-23T10:09:24.533Z,18.95
2018-08-23T10:12:54.274Z,21.42
2018-08-23T10:16:24.032Z,21.17
2018-08-23T10:19:53.605Z,21.50
2018-08-23T10:23:26.095Z,20.57
2018-08-23T10:26:50.478Z,19.15
2018-08-23T10:30:14.973Z,16.30
2018-08-23T10:33:39.396Z,17.90
2018-08-23T10:37:03.760Z,21.12
2018-08-23T10:40:28.200Z,15.43
2018-08-23T10:43:52.609Z,16.70
2018-08-23T10:47:22.163Z,16.48
2018-08-23T10:50:48.196Z,16.75
2018-08-23T10:54:12.597Z,26.65
2018-08-23T10:57:37.034Z,25.43
2018-08-23T11:01:01.532Z,31.23
2018-08-23T11:04:25.946Z,23.95
2018-08-23T11:08:57.086Z,23.60
2018-08-23T11:12:26.653Z,19.23
2018-08-23T11:15:55.130Z,25.72
2018-08-23T11:19:24.751Z,25.82
2018-08-23T11:22:49.221Z,26.02
2018-08-23T11:26:22.182Z,26.30
2018-08-23T11:29:46.660Z,30.17
2018-08-23T11:33:11.103Z,34.25
2018-08-23T11:36:35.521Z,31.35
2018-08-23T11:39:59.989Z,37.03
2018-08-23T11:43:24.423Z,31.02
2018-08-23T11:46:48.966Z,37.13
2018-08-23T11:50:13.391Z,35.25
2018-08-23T11:53:38.056Z,37.75
2018-08-23T11:57:02.245Z,31.85
2018-08-23T12:00:26.733Z,33.88
2018-08-23T12:03:51.191Z,39.58
2018-08-23T12:07:15.624Z,38.50
2018-08-23T12:10:40.055Z,34.75
2018-08-23T12:14:04.664Z,31.48
2018-08-23T12:17:29.078Z,31.37
2018-08-23T12:20:53.496Z,28.20
2018-08-23T12:24:17.969Z,28.15
2018-08-23T12:27:42.778Z,32.23
2018-08-23T12:31:07.453Z,28.92
2018-08-23T12:34:36.187Z,33.50
2018-08-23T12:38:05.877Z,25.95
2018-08-23T12:42:35.171Z,25.48
2018-08-23T12:46:04.417Z,26.17
2018-08-23T12:49:28.893Z,22.13
2018-08-23T12:52:53.411Z,23.52
2018-08-23T12:56:17.923Z,21.20
2018-08-23T12:59:42.419Z,21.17
2018-08-23T13:03:07.731Z,21.57
2018-08-23T13:06:32.132Z,22.75
2018-08-23T13:09:56.553Z,20.37
2018-08-23T13:13:20.997Z,21.70
2018-08-23T13:16:45.531Z,22.55
2018-08-23T13:20:09.957Z,20.25
2018-08-23T13:23:34.416Z,19.10
2018-08-23T13:26:58.869Z,20.85
2018-08-23T13:30:23.329Z,20.10
2018-08-23T13:33:47.773Z,17.67
2018-08-23T13:37:12.200Z,19.02
2018-08-23T13:40:36.632Z,17.85
2018-08-23T13:44:01.155Z,15.32
2018-08-23T13:47:25.532Z,16.52
2018-08-23T13:50:49.954Z,17.20
2018-08-23T13:54:14.384Z,16.70
2018-08-23T13:57:38.857Z,16.82
2018-08-23T14:01:03.302Z,17.40
2018-08-23T14:04:27.723Z,17.95
2018-08-23T14:07:52.156Z,14.00
2018-08-23T14:11:16.690Z,20.92
2018-08-23T14:14:41.814Z,14.28
2018-08-23T14:18:06.287Z,22.87
2018-08-23T14:21:30.751Z,21.90
2018-08-23T14:24:55.247Z,14.33
2018-08-23T14:28:19.825Z,18.57
2018-08-23T14:31:44.235Z,13.83
2018-08-23T14:35:08.739Z,18.67
2018-08-23T14:38:33.270Z,18.20
2018-08-23T14:41:57.665Z,19.23
2018-08-23T14:45:27.251Z,18.05
2018-08-23T14:48:51.697Z,16.48
2018-08-23T14:52:16.178Z,17.17
2018-08-23T14:55:45.770Z,18.07
2018-08-23T14:59:10.275Z,16.20
2018-08-23T15:02:34.788Z,13.75
2018-08-23T15:05:59.211Z,13.20
2018-08-23T15:09:28.010Z,11.55
2018-08-23T15:12:52.568Z,11.95
2018-08-23T15:16:17.056Z,13.50
2018-08-23T15:19:41.685Z,13.18
2018-08-23T15:23:06.489Z,11.18
2018-08-23T15:26:31.056Z,8.88
2018-08-23T15:29:55.306Z,7.67
2018-08-23T15:33:19.719Z,7.85
2018-08-23T15:36:44.185Z,10.43
2018-08-23T15:40:08.687Z,9.68
2018-08-23T15:43:33.111Z,9.35
2018-08-23T15:46:57.518Z,9.20
2018-08-23T15:50:23.545Z,13.98
2018-08-23T15:53:47.915Z,8.90
2018-08-23T15:57:12.373Z,10.80
2018-08-23T16:00:39.808Z,11.50
2018-08-23T16:04:04.390Z,13.28
2018-08-23T16:07:28.790Z,11.38
2018-08-23T16:10:53.228Z,12.80
2018-08-23T16:14:17.709Z,13.48
2018-08-23T16:17:47.300Z,11.90
2018-08-23T16:21:11.711Z,11.48
2018-08-23T16:24:36.117Z,12.55
2018-08-23T16:28:06.136Z,13.15
2018-08-23T16:31:30.769Z,11.68
2018-08-23T16:34:55.270Z,33.95
2018-08-23T16:38:19.682Z,10.60
2018-08-23T16:41:44.153Z,10.68
2018-08-23T16:45:08.665Z,11.03
2018-08-23T16:48:33.097Z,13.53
2018-08-23T16:51:57.502Z,11.65
2018-08-23T16:55:21.923Z,11.60
2018-08-23T16:58:46.345Z,26.87
2018-08-23T17:02:10.958Z,8.68
2018-08-23T17:05:35.410Z,11.85
2018-08-23T17:09:00.149Z,8.33
2018-08-23T17:12:24.525Z,10.10
2018-08-23T17:15:54.117Z,10.63
2018-08-23T17:19:18.609Z,9.60
2018-08-23T17:22:44.581Z,8.95
2018-08-23T17:26:09.033Z,9.30
2018-08-23T17:29:33.467Z,17.45
2018-08-23T17:32:57.900Z,9.13
2018-08-23T17:36:22.336Z,11.10
2018-08-23T17:39:46.774Z,9.60
2018-08-23T17:43:11.213Z,8.03
2018-08-23T17:46:35.672Z,7.97
2018-08-23T17:50:00.111Z,8.15
2018-08-23T17:53:24.553Z,6.50
2018-08-23T17:56:49.009Z,7.30
2018-08-23T18:00:13.482Z,7.00
2018-08-23T18:03:37.913Z,10.88
2018-08-23T18:07:02.369Z,6.50
2018-08-23T18:10:28.022Z,5.67
2018-08-23T18:13:52.449Z,6.55
2018-08-23T18:17:16.895Z,6.22
2018-08-23T18:20:41.296Z,7.62
2018-08-23T18:24:05.883Z,7.50
2018-08-23T18:27:30.278Z,8.90
2018-08-23T18:30:54.716Z,6.58
2018-08-23T18:34:19.178Z,6.00
2018-08-23T18:37:43.785Z,5.35
2018-08-23T18:41:08.079Z,6.58
2018-08-23T18:44:32.500Z,5.17
2018-08-23T18:47:56.943Z,5.58
2018-08-23T18:51:21.356Z,6.10
2018-08-23T18:54:45.771Z,7.42
2018-08-23T18:58:10.232Z,6.12
2018-08-23T19:01:34.679Z,5.15
2018-08-23T19:04:59.117Z,5.97
2018-08-23T19:08:23.559Z,5.47
2018-08-23T19:11:48.019Z,5.70
2018-08-23T19:15:12.554Z,5.17
2018-08-23T19:18:37.379Z,8.58
2018-08-23T19:22:02.523Z,5.67
2018-08-23T19:25:27.619Z,4.78
2018-08-23T19:28:52.798Z,4.30
2018-08-23T19:32:18.113Z,6.15
2018-08-23T19:35:42.545Z,5.03
2018-08-23T19:39:11.503Z,6.45
2018-08-23T19:42:36.078Z,5.45
2018-08-23T19:46:05.715Z,6.80
2018-08-23T19:49:35.413Z,5.37
2018-08-23T19:52:59.935Z,7.47
2018-08-23T19:56:24.428Z,4.92
2018-08-23T19:59:48.937Z,5.08
2018-08-23T20:03:13.391Z,7.35
2018-08-23T20:06:37.962Z,4.25
2018-08-23T20:10:02.392Z,3.83
2018-08-23T20:13:26.986Z,4.95
2018-08-23T20:16:51.417Z,4.22
2018-08-23T20:20:17.017Z,3.67
2018-08-23T20:23:41.480Z,3.80
2018-08-23T20:27:05.953Z,5.42
2018-08-23T20:30:30.404Z,5.75
2018-08-23T20:33:54.832Z,3.87
2018-08-23T20:37:19.301Z,6.03
2018-08-23T20:40:43.716Z,3.22
2018-08-23T20:44:08.665Z,6.45
2018-08-23T20:47:33.108Z,3.62
2018-08-23T20:50:57.580Z,3.92
2018-08-23T20:54:22.020Z,4.17
2018-08-23T20:57:46.517Z,3.55
2018-08-23T21:01:10.963Z,3.85
2018-08-23T21:04:39.279Z,3.05
2018-08-23T21:08:03.821Z,3.27
2018-08-23T21:11:28.224Z,3.80
2018-08-23T21:14:52.645Z,3.05
2018-08-23T21:18:17.053Z,3.10
2018-08-23T21:21:41.452Z,5.70
2018-08-23T21:25:05.937Z,4.03
2018-08-23T21:28:30.358Z,4.20
2018-08-23T21:31:54.784Z,3.58
2018-08-23T21:35:19.224Z,3.67
2018-08-23T21:38:43.657Z,3.72
2018-08-23T21:42:08.113Z,3.42
2018-08-23T21:45:32.528Z,3.65
2018-08-23T21:48:56.995Z,3.30
2018-08-23T21:52:21.411Z,7.10
2018-08-23T21:55:45.831Z,8.10
2018-08-23T21:59:10.393Z,5.10
2018-08-23T22:02:34.874Z,3.40
2018-08-23T22:05:59.284Z,3.45
2018-08-23T22:09:23.730Z,3.22
2018-08-23T22:12:48.180Z,2.70
2018-08-23T22:16:12.632Z,3.17
2018-08-23T22:19:37.051Z,3.87
2018-08-23T22:23:01.469Z,4.40
2018-08-23T22:26:25.933Z,3.83
2018-08-23T22:29:50.314Z,3.00
2018-08-23T22:33:14.774Z,4.05
2018-08-23T22:36:39.164Z,2.92
2018-08-23T22:40:03.591Z,2.98
2018-08-23T22:43:28.015Z,2.80
2018-08-23T22:46:52.425Z,3.55
2018-08-23T22:50:16.854Z,3.17
2018-08-23T22:53:41.376Z,2.33
2018-08-23T22:57:05.856Z,3.83
2018-08-23T23:00:35.625Z,3.45
2018-08-23T23:04:05.309Z,3.35
2018-08-23T23:07:29.729Z,2.10
2018-08-23T23:10:54.076Z,3.92
2018-08-23T23:14:18.503Z,4.05
2018-08-23T23:17:42.953Z,3.05
2018-08-23T23:21:07.348Z,3.02
2018-08-23T23:24:36.756Z,2.22
2018-08-23T23:28:01.175Z,3.22
2018-08-23T23:31:25.597Z,3.85
2018-08-23T23:34:49.987Z,4.85
2018-08-23T23:38:14.367Z,6.15
2018-08-23T23:41:38.799Z,7.45
2018-08-23T23:45:03.215Z,8.03
2018-08-23T23:48:27.662Z,10.70
2018-08-23T23:51:52.090Z,10.28
2018-08-23T23:55:16.549Z,9.53
2018-08-23T23:58:40.994Z,10.75
